logo dgac
Martes 12 de Diciembre del 2017
Buscar por aerodromo o helipuerto
Ingrese nombre de aeródromo, localidad o designador OACI:
METAR del 12-12-2017 a las 04:00 UTC
METAR SCRM 120400Z 19010KT 9999 SCT010 OVC050 00/M01 Q0977
Viento: dirección 190 grados, velocidad 10 nudos
Visibilidad: 10 km o más
Nubes: Nubosidad parcial a 1000 pies sobre el nivel del aeródromo
Nubes: Cubierto a 5000 pies sobre el nivel del aeródromo
Temperatura: 0 °C
Rocío: -1 °C
Humedad_relativa: 93%
Presión: 977 hPa
METAR del 12-12-2017 a las 03:00 UTC
METAR SCRM 120300Z 18010KT 9999 -SHSN SCT010 OVC060 00/M02 Q0977
Viento: dirección 180 grados, velocidad 10 nudos
Visibilidad: 10 km o más
Débil ChubascosNieve
Nubes: Nubosidad parcial a 1000 pies sobre el nivel del aeródromo
Nubes: Cubierto a 6000 pies sobre el nivel del aeródromo
Temperatura: 0 °C
Rocío: -2 °C
Humedad_relativa: 86%
Presión: 977 hPa
METAR del 12-12-2017 a las 02:00 UTC
METAR SCRM 120200Z 17014KT 9999 -FZRA SCT010 OVC060 00/M02 Q0976
Viento: dirección 170 grados, velocidad 14 nudos
Visibilidad: 10 km o más
Débil Helada Lluvia
Nubes: Nubosidad parcial a 1000 pies sobre el nivel del aeródromo
Nubes: Cubierto a 6000 pies sobre el nivel del aeródromo
Temperatura: 0 °C
Rocío: -2 °C
Humedad_relativa: 86%
Presión: 976 hPa
METAR del 12-12-2017 a las 01:00 UTC
METAR SCRM 120100Z 18016KT 9999 -FZRA SCT010 OVC060 M00/M01 Q0975
Viento: dirección 180 grados, velocidad 16 nudos
Visibilidad: 10 km o más
Débil Helada Lluvia
Nubes: Nubosidad parcial a 1000 pies sobre el nivel del aeródromo
Nubes: Cubierto a 6000 pies sobre el nivel del aeródromo
Temperatura: 0 °C
Rocío: -1 °C
Humedad_relativa: 93%
Presión: 975 hPa
METAR del 12-12-2017 a las 00:00 UTC
METAR SCRM 120000Z 12019KT 4000 -SN OVC008 M01/M01 Q0974
Viento: dirección 120 grados, velocidad 19 nudos
Visibilidad: 4000 metros
Débil Nieve
Nubes: Cubierto a 800 pies sobre el nivel del aeródromo
Temperatura: -1 °C
Rocío: -1 °C
Humedad_relativa: 100%
Presión: 974 hPa
METAR del 11-12-2017 a las 23:00 UTC
METAR SCRM 112300Z 11025KT 4000 -FZDZ -SN OVC007 M01/M01 Q0973
Viento: dirección 110 grados, velocidad 25 nudos
Visibilidad: 4000 metros
Débil Helada LLovizna
Débil Nieve
Nubes: Cubierto a 700 pies sobre el nivel del aeródromo
Temperatura: -1 °C
Rocío: -1 °C
Humedad_relativa: 100%
Presión: 973 hPa
METAR del 11-12-2017 a las 22:00 UTC
METAR SCRM 112200Z 11026KT 5000 -SHSN SCT006 BKN012 M01/M01 Q0973
Viento: dirección 110 grados, velocidad 26 nudos
Visibilidad: 5000 metros
Débil ChubascosNieve
Nubes: Nubosidad parcial a 600 pies sobre el nivel del aeródromo
Nubes: Nublado a 1200 pies sobre el nivel del aeródromo
Temperatura: -1 °C
Rocío: -1 °C
Humedad_relativa: 100%
Presión: 973 hPa
METAR del 11-12-2017 a las 21:00 UTC
METAR SCRM 112100Z 11026KT 2000 -SN OVC003 M01/M01 Q0972
Viento: dirección 110 grados, velocidad 26 nudos
Visibilidad: 2000 metros
Débil Nieve
Nubes: Cubierto a 300 pies sobre el nivel del aeródromo
Temperatura: -1 °C
Rocío: -1 °C
Humedad_relativa: 100%
Presión: 972 hPa
METAR del 11-12-2017 a las 20:00 UTC
METAR SCRM 112000Z 12027KT 3000 -SN OVC004 M00/M01 Q0972
Viento: dirección 120 grados, velocidad 27 nudos
Visibilidad: 3000 metros
Débil Nieve
Nubes: Cubierto a 400 pies sobre el nivel del aeródromo
Temperatura: 0 °C
Rocío: -1 °C
Humedad_relativa: 93%
Presión: 972 hPa
METAR del 11-12-2017 a las 19:00 UTC
METAR SCRM 111900Z 12029KT 3000 -SHRASN BKN007 M00/M01 Q0971
Viento: dirección 120 grados, velocidad 29 nudos
Visibilidad: 3000 metros
Débil ChubascosAgua-Nieve
Nubes: Nublado a 700 pies sobre el nivel del aeródromo
Temperatura: 0 °C
Rocío: -1 °C
Humedad_relativa: 93%
Presión: 971 hPa